Terminal Aerodrome Forecast
Issued by NWS North Platte, NE

Home | Current Version | Previous Version | Text Only | Print | Product List | Glossary On
Versions: 1 2 3 4 5 6 7 8 9 10 11 12 13 14
000
FTUS43 KLBF 202321
TAFVTN
TAF
KVTN 202321Z 2100/2124 31009KT P6SM BKN250
     FM210300 29005KT P6SM OVC200
     FM210600 31006KT P6SM VCSH BKN110
     FM210900 34011KT P6SM VCSH OVC070
     FM211200 34012G19KT P6SM OVC060
     FM211400 34014G23KT P6SM SCT130
     FM212300 34006KT P6SM FEW250=

USA.gov is the U.S. government's official web portal to all federal, state and local government web resources and services.